sensor_id;sensor_type;location;lat;lon;timestamp;pressure;altitude;pressure_sealevel;temperature;humidity
3444;BME280;1736;52.068;6.968;2023-02-12T00:00:50;103264.59;;;7.64;100.00
3444;BME280;1736;52.068;6.968;2023-02-12T00:03:17;103255.00;;;7.61;100.00
3444;BME280;1736;52.068;6.968;2023-02-12T00:05:43;103258.56;;;7.60;100.00
3444;BME280;1736;52.068;6.968;2023-02-12T00:08:11;103260.28;;;7.61;100.00
3444;BME280;1736;52.068;6.968;2023-02-12T00:10:39;103258.66;;;7.57;100.00
3444;BME280;1736;52.068;6.968;2023-02-12T00:13:07;103261.16;;;7.62;100.00
3444;BME280;1736;52.068;6.968;2023-02-12T00:15:37;103262.97;;;7.60;100.00
3444;BME280;1736;52.068;6.968;2023-02-12T00:18:03;103255.91;;;7.60;100.00
3444;BME280;1736;52.068;6.968;2023-02-12T00:20:30;103260.28;;;7.61;100.00
3444;BME280;1736;52.068;6.968;2023-02-12T00:22:56;103266.53;;;7.59;100.00
3444;BME280;1736;52.068;6.968;2023-02-12T00:25:24;103264.72;;;7.61;100.00
3444;BME280;1736;52.068;6.968;2023-02-12T00:27:51;103266.44;;;7.62;100.00
3444;BME280;1736;52.068;6.968;2023-02-12T00:30:17;103256.72;;;7.62;100.00
3444;BME280;1736;52.068;6.968;2023-02-12T00:32:44;103254.97;;;7.63;100.00
3444;BME280;1736;52.068;6.968;2023-02-12T00:35:11;103251.44;;;7.62;100.00
3444;BME280;1736;52.068;6.968;2023-02-12T00:37:37;103261.19;;;7.60;100.00
3444;BME280;1736;52.068;6.968;2023-02-12T00:40:05;103255.97;;;7.59;100.00
3444;BME280;1736;52.068;6.968;2023-02-12T00:42:33;103261.13;;;7.63;100.00
3444;BME280;1736;52.068;6.968;2023-02-12T00:45:00;103255.00;;;7.61;100.00
3444;BME280;1736;52.068;6.968;2023-02-12T00:47:26;103256.00;;;7.57;100.00
3444;BME280;1736;52.068;6.968;2023-02-12T00:49:53;103256.00;;;7.57;100.00
3444;BME280;1736;52.068;6.968;2023-02-12T00:52:19;103261.25;;;7.59;100.00
3444;BME280;1736;52.068;6.968;2023-02-12T00:54:46;103256.94;;;7.56;100.00
3444;BME280;1736;52.068;6.968;2023-02-12T00:57:12;103259.63;;;7.55;100.00
3444;BME280;1736;52.068;6.968;2023-02-12T00:59:40;103265.97;;;7.48;100.00
3444;BME280;1736;52.068;6.968;2023-02-12T01:02:07;103267.59;;;7.53;100.00
3444;BME280;1736;52.068;6.968;2023-02-12T01:04:33;103258.84;;;7.51;100.00
3444;BME280;1736;52.068;6.968;2023-02-12T01:07:00;103260.56;;;7.52;100.00
3444;BME280;1736;52.068;6.968;2023-02-12T01:09:27;103263.22;;;7.52;100.00
3444;BME280;1736;52.068;6.968;2023-02-12T01:11:53;103264.22;;;7.48;100.00
3444;BME280;1736;52.068;6.968;2023-02-12T01:14:20;103270.44;;;7.47;100.00
3444;BME280;1736;52.068;6.968;2023-02-12T01:16:48;103276.56;;;7.48;100.00
3444;BME280;1736;52.068;6.968;2023-02-12T01:19:14;103275.72;;;7.47;100.00
3444;BME280;1736;52.068;6.968;2023-02-12T01:21:41;103276.59;;;7.46;100.00
3444;BME280;1736;52.068;6.968;2023-02-12T01:24:08;103273.06;;;7.47;100.00
3444;BME280;1736;52.068;6.968;2023-02-12T01:26:35;103272.94;;;7.50;100.00
3444;BME280;1736;52.068;6.968;2023-02-12T01:29:04;103280.84;;;7.52;100.00
3444;BME280;1736;52.068;6.968;2023-02-12T01:31:32;103281.63;;;7.55;100.00
3444;BME280;1736;52.068;6.968;2023-02-12T01:34:01;103282.59;;;7.53;100.00
3444;BME280;1736;52.068;6.968;2023-02-12T01:36:29;103283.59;;;7.49;100.00
3444;BME280;1736;52.068;6.968;2023-02-12T01:38:56;103280.06;;;7.48;100.00
3444;BME280;1736;52.068;6.968;2023-02-12T01:41:25;103280.16;;;7.45;100.00
3444;BME280;1736;52.068;6.968;2023-02-12T01:44:06;103282.00;;;7.43;100.00
3444;BME280;1736;52.068;6.968;2023-02-12T01:46:33;103278.44;;;7.44;100.00
3444;BME280;1736;52.068;6.968;2023-02-12T01:49:02;103271.38;;;7.45;100.00
3444;BME280;1736;52.068;6.968;2023-02-12T01:51:30;103265.31;;;7.41;100.00
3444;BME280;1736;52.068;6.968;2023-02-12T01:54:02;103267.88;;;7.44;100.00
3444;BME280;1736;52.068;6.968;2023-02-12T01:56:30;103262.66;;;7.41;100.00
3444;BME280;1736;52.068;6.968;2023-02-12T01:58:57;103264.38;;;7.42;100.00
3444;BME280;1736;52.068;6.968;2023-02-12T02:01:27;103260.09;;;7.38;100.00
3444;BME280;1736;52.068;6.968;2023-02-12T02:03:56;103260.09;;;7.38;100.00
3444;BME280;1736;52.068;6.968;2023-02-12T02:06:30;103248.78;;;7.35;100.00
3444;BME280;1736;52.068;6.968;2023-02-12T02:08:57;103257.56;;;7.35;100.00
3444;BME280;1736;52.068;6.968;2023-02-12T02:11:24;103256.69;;;7.35;100.00
3444;BME280;1736;52.068;6.968;2023-02-12T02:14:08;103249.69;;;7.34;100.00
3444;BME280;1736;52.068;6.968;2023-02-12T02:17:00;103254.09;;;7.33;100.00
3444;BME280;1736;52.068;6.968;2023-02-12T02:19:38;103251.66;;;7.27;100.00
3444;BME280;1736;52.068;6.968;2023-02-12T02:22:23;103257.78;;;7.28;100.00
3444;BME280;1736;52.068;6.968;2023-02-12T02:25:18;103249.81;;;7.29;100.00
3444;BME280;1736;52.068;6.968;2023-02-12T02:28:00;103256.09;;;7.25;100.00
3444;BME280;1736;52.068;6.968;2023-02-12T02:30:37;103248.06;;;7.30;100.00
3444;BME280;1736;52.068;6.968;2023-02-12T02:33:14;103249.81;;;7.29;100.00
3444;BME280;1736;52.068;6.968;2023-02-12T02:35:52;103242.00;;;7.26;100.00
3444;BME280;1736;52.068;6.968;2023-02-12T02:38:27;103237.63;;;7.25;100.00
3444;BME280;1736;52.068;6.968;2023-02-12T02:41:02;103231.53;;;7.23;100.00
3444;BME280;1736;52.068;6.968;2023-02-12T02:43:33;103241.22;;;7.23;100.00
3444;BME280;1736;52.068;6.968;2023-02-12T02:46:05;103236.91;;;7.20;100.00
3444;BME280;1736;52.068;6.968;2023-02-12T02:48:35;103226.31;;;7.20;100.00
3444;BME280;1736;52.068;6.968;2023-02-12T02:51:05;103228.16;;;7.18;100.00
3444;BME280;1736;52.068;6.968;2023-02-12T02:53:36;103230.94;;;7.14;100.00
3444;BME280;1736;52.068;6.968;2023-02-12T02:56:06;103233.53;;;7.15;100.00
3444;BME280;1736;52.068;6.968;2023-02-12T02:58:37;103231.69;;;7.17;100.00
3444;BME280;1736;52.068;6.968;2023-02-12T03:01:08;103235.25;;;7.16;100.00
3444;BME280;1736;52.068;6.968;2023-02-12T03:03:42;103224.69;;;7.16;100.00
3444;BME280;1736;52.068;6.968;2023-02-12T03:06:14;103226.38;;;7.19;100.00
3444;BME280;1736;52.068;6.968;2023-02-12T03:08:48;103228.25;;;7.15;100.00
3444;BME280;1736;52.068;6.968;2023-02-12T03:11:21;103233.53;;;7.15;100.00
3444;BME280;1736;52.068;6.968;2023-02-12T03:13:53;103233.53;;;7.15;100.00
3444;BME280;1736;52.068;6.968;2023-02-12T03:16:25;103232.69;;;7.13;100.00
3444;BME280;1736;52.068;6.968;2023-02-12T03:18:55;103230.94;;;7.14;100.00
3444;BME280;1736;52.068;6.968;2023-02-12T03:21:31;103232.69;;;7.13;100.00
3444;BME280;1736;52.068;6.968;2023-02-12T03:24:02;103228.31;;;7.12;100.00
3444;BME280;1736;52.068;6.968;2023-02-12T03:26:37;103233.59;;;7.12;100.00
3444;BME280;1736;52.068;6.968;2023-02-12T03:29:05;103231.69;;;7.17;100.00
3444;BME280;1736;52.068;6.968;2023-02-12T03:31:38;103226.56;;;7.13;100.00
3444;BME280;1736;52.068;6.968;2023-02-12T03:34:11;103231.88;;;7.11;100.00
3444;BME280;1736;52.068;6.968;2023-02-12T03:36:45;103228.41;;;7.09;100.00
3444;BME280;1736;52.068;6.968;2023-02-12T03:39:24;103235.44;;;7.10;100.00
3444;BME280;1736;52.068;6.968;2023-02-12T03:41:59;103236.38;;;7.08;100.00
3444;BME280;1736;52.068;6.968;2023-02-12T03:44:38;103234.59;;;7.08;100.00
3444;BME280;1736;52.068;6.968;2023-02-12T03:47:16;103233.72;;;7.08;100.00
3444;BME280;1736;52.068;6.968;2023-02-12T03:49:48;103240.81;;;7.07;100.00
3444;BME280;1736;52.068;6.968;2023-02-12T03:52:18;103245.25;;;7.05;100.00
3444;BME280;1736;52.068;6.968;2023-02-12T03:54:45;103247.03;;;7.05;100.00
3444;BME280;1736;52.068;6.968;2023-02-12T03:57:14;103241.81;;;7.03;100.00
3444;BME280;1736;52.068;6.968;2023-02-12T03:59:43;103242.72;;;7.02;100.00
3444;BME280;1736;52.068;6.968;2023-02-12T04:02:13;103250.59;;;7.04;100.00
3444;BME280;1736;52.068;6.968;2023-02-12T04:04:40;103253.28;;;7.02;100.00
3444;BME280;1736;52.068;6.968;2023-02-12T04:07:07;103249.66;;;7.06;100.00
3444;BME280;1736;52.068;6.968;2023-02-12T04:09:33;103257.00;;;6.95;100.00
3444;BME280;1736;52.068;6.968;2023-02-12T04:12:21;103248.84;;;7.03;100.00
3444;BME280;1736;52.068;6.968;2023-02-12T04:14:54;103252.38;;;7.03;100.00
3444;BME280;1736;52.068;6.968;2023-02-12T04:17:29;103259.41;;;7.03;100.00
3444;BME280;1736;52.068;6.968;2023-02-12T04:20:06;103256.91;;;6.98;100.00
3444;BME280;1736;52.068;6.968;2023-02-12T04:22:44;103259.56;;;6.98;100.00
3444;BME280;1736;52.068;6.968;2023-02-12T04:25:20;103263.03;;;6.99;100.00
3444;BME280;1736;52.068;6.968;2023-02-12T04:27:54;103262.19;;;6.98;100.00
3444;BME280;1736;52.068;6.968;2023-02-12T04:30:27;103269.28;;;6.96;100.00
3444;BME280;1736;52.068;6.968;2023-02-12T04:32:59;103265.88;;;6.93;100.00
3444;BME280;1736;52.068;6.968;2023-02-12T04:35:31;103267.38;;;7.01;100.00
3444;BME280;1736;52.068;6.968;2023-02-12T04:38:04;103277.94;;;7.01;100.00
3444;BME280;1736;52.068;6.968;2023-02-12T04:40:34;103281.41;;;7.03;100.00
3444;BME280;1736;52.068;6.968;2023-02-12T04:43:01;103281.56;;;6.97;100.00
3444;BME280;1736;52.068;6.968;2023-02-12T04:45:31;103281.53;;;6.99;100.00
3444;BME280;1736;52.068;6.968;2023-02-12T04:48:00;103280.72;;;6.97;100.00
3444;BME280;1736;52.068;6.968;2023-02-12T04:50:33;103283.31;;;6.98;100.00
3444;BME280;1736;52.068;6.968;2023-02-12T04:53:02;103285.03;;;6.99;100.00
3444;BME280;1736;52.068;6.968;2023-02-12T04:55:29;103281.53;;;6.99;100.00
3444;BME280;1736;52.068;6.968;2023-02-12T04:57:55;103279.75;;;6.99;100.00
3444;BME280;1736;52.068;6.968;2023-02-12T05:00:22;103280.69;;;6.98;100.00
3444;BME280;1736;52.068;6.968;2023-02-12T05:02:49;103282.41;;;6.99;100.00
3444;BME280;1736;52.068;6.968;2023-02-12T05:05:16;103285.13;;;6.96;100.00
3444;BME280;1736;52.068;6.968;2023-02-12T05:07:43;103286.97;;;6.94;100.00
3444;BME280;1736;52.068;6.968;2023-02-12T05:10:10;103289.59;;;6.94;100.00
3444;BME280;1736;52.068;6.968;2023-02-12T05:12:36;103283.47;;;6.92;100.00
3444;BME280;1736;52.068;6.968;2023-02-12T05:15:03;103284.50;;;6.87;100.00
3444;BME280;1736;52.068;6.968;2023-02-12T05:17:30;103294.94;;;6.91;100.00
3444;BME280;1736;52.068;6.968;2023-02-12T05:19:56;103292.38;;;6.88;100.00
3444;BME280;1736;52.068;6.968;2023-02-12T05:22:24;103288.03;;;6.87;100.00
3444;BME280;1736;52.068;6.968;2023-02-12T05:24:51;103290.66;;;6.87;100.00
3444;BME280;1736;52.068;6.968;2023-02-12T05:27:17;103291.59;;;6.86;100.00
3444;BME280;1736;52.068;6.968;2023-02-12T05:29:44;103289.00;;;6.83;100.00
3444;BME280;1736;52.068;6.968;2023-02-12T05:32:10;103288.94;;;6.86;100.00
3444;BME280;1736;52.068;6.968;2023-02-12T05:34:37;103290.66;;;6.87;100.00
3444;BME280;1736;52.068;6.968;2023-02-12T05:37:04;103296.09;;;6.81;100.00
3444;BME280;1736;52.068;6.968;2023-02-12T05:39:32;103289.75;;;6.88;100.00
3444;BME280;1736;52.068;6.968;2023-02-12T05:41:58;103290.75;;;6.84;100.00
3444;BME280;1736;52.068;6.968;2023-02-12T05:44:25;103294.28;;;6.83;100.00
3444;BME280;1736;52.068;6.968;2023-02-12T05:46:51;103289.97;;;6.81;100.00
3444;BME280;1736;52.068;6.968;2023-02-12T05:49:18;103292.56;;;6.82;100.00
3444;BME280;1736;52.068;6.968;2023-02-12T05:51:44;103297.84;;;6.82;100.00
3444;BME280;1736;52.068;6.968;2023-02-12T05:54:11;103295.22;;;6.82;100.00
3444;BME280;1736;52.068;6.968;2023-02-12T05:56:42;103300.47;;;6.82;100.00
3444;BME280;1736;52.068;6.968;2023-02-12T05:59:12;103299.78;;;6.76;100.00
3444;BME280;1736;52.068;6.968;2023-02-12T06:01:41;103306.75;;;6.78;100.00
3444;BME280;1736;52.068;6.968;2023-02-12T06:04:12;103291.94;;;6.73;100.00
3444;BME280;1736;52.068;6.968;2023-02-12T06:06:39;103299.91;;;6.71;100.00
3444;BME280;1736;52.068;6.968;2023-02-12T06:09:06;103301.63;;;6.72;100.00
3444;BME280;1736;52.068;6.968;2023-02-12T06:11:33;103302.53;;;6.71;100.00
3444;BME280;1736;52.068;6.968;2023-02-12T06:14:02;103303.44;;;6.70;100.00
3444;BME280;1736;52.068;6.968;2023-02-12T06:16:29;103300.81;;;6.70;100.00
3444;BME280;1736;52.068;6.968;2023-02-12T06:18:55;103299.16;;;6.66;100.00
3444;BME280;1736;52.068;6.968;2023-02-12T06:21:25;103309.72;;;6.66;100.00
3444;BME280;1736;52.068;6.968;2023-02-12T06:23:51;103311.69;;;6.58;100.00
3444;BME280;1736;52.068;6.968;2023-02-12T06:26:18;103311.75;;;6.55;100.00
3444;BME280;1736;52.068;6.968;2023-02-12T06:28:45;103316.28;;;6.50;100.00
3444;BME280;1736;52.068;6.968;2023-02-12T06:31:19;103310.28;;;6.45;100.00
3444;BME280;1736;52.068;6.968;2023-02-12T06:33:46;103309.63;;;6.36;100.00
3444;BME280;1736;52.068;6.968;2023-02-12T06:36:12;103314.09;;;6.32;100.00
3444;BME280;1736;52.068;6.968;2023-02-12T06:38:39;103311.59;;;6.28;100.00
3444;BME280;1736;52.068;6.968;2023-02-12T06:41:05;103315.25;;;6.22;100.00
3444;BME280;1736;52.068;6.968;2023-02-12T06:43:32;103310.09;;;6.16;100.00
3444;BME280;1736;52.068;6.968;2023-02-12T06:45:59;103309.25;;;6.16;100.00
3444;BME280;1736;52.068;6.968;2023-02-12T06:48:28;103309.25;;;6.16;100.00
3444;BME280;1736;52.068;6.968;2023-02-12T06:50:55;103317.13;;;6.17;100.00
3444;BME280;1736;52.068;6.968;2023-02-12T06:53:22;103318.78;;;6.21;100.00
3444;BME280;1736;52.068;6.968;2023-02-12T06:55:48;103316.03;;;6.26;100.00
3444;BME280;1736;52.068;6.968;2023-02-12T06:58:14;103319.50;;;6.28;100.00
3444;BME280;1736;52.068;6.968;2023-02-12T07:00:41;103322.94;;;6.30;100.00
3444;BME280;1736;52.068;6.968;2023-02-12T07:03:08;103329.88;;;6.34;100.00
3444;BME280;1736;52.068;6.968;2023-02-12T07:05:38;103334.31;;;6.33;100.00
3444;BME280;1736;52.068;6.968;2023-02-12T07:08:05;103333.34;;;6.37;100.00
3444;BME280;1736;52.068;6.968;2023-02-12T07:10:32;103334.09;;;6.42;100.00
3444;BME280;1736;52.068;6.968;2023-02-12T07:12:59;103349.84;;;6.45;100.00
3444;BME280;1736;52.068;6.968;2023-02-12T07:15:25;103348.88;;;6.49;100.00
3444;BME280;1736;52.068;6.968;2023-02-12T07:17:52;103345.31;;;6.50;100.00
3444;BME280;1736;52.068;6.968;2023-02-12T07:20:18;103350.53;;;6.53;100.00
3444;BME280;1736;52.068;6.968;2023-02-12T07:22:46;103342.59;;;6.53;100.00
3444;BME280;1736;52.068;6.968;2023-02-12T07:25:13;103349.53;;;6.57;100.00
3444;BME280;1736;52.068;6.968;2023-02-12T07:27:39;103348.50;;;6.63;100.00
3444;BME280;1736;52.068;6.968;2023-02-12T07:30:07;103356.31;;;6.67;100.00
3444;BME280;1736;52.068;6.968;2023-02-12T07:32:34;103354.50;;;6.69;100.00
3444;BME280;1736;52.068;6.968;2023-02-12T07:35:00;103357.91;;;6.73;100.00
3444;BME280;1736;52.068;6.968;2023-02-12T07:37:27;103371.97;;;6.73;100.00
3444;BME280;1736;52.068;6.968;2023-02-12T07:39:55;103368.34;;;6.77;100.00
3444;BME280;1736;52.068;6.968;2023-02-12T07:42:21;103370.00;;;6.81;100.00
3444;BME280;1736;52.068;6.968;2023-02-12T07:44:48;103376.03;;;6.86;100.00
3444;BME280;1736;52.068;6.968;2023-02-12T07:47:14;103383.09;;;6.86;100.00
3444;BME280;1736;52.068;6.968;2023-02-12T07:49:41;103388.28;;;6.89;100.00
3444;BME280;1736;52.068;6.968;2023-02-12T07:52:07;103375.91;;;6.91;100.00
3444;BME280;1736;52.068;6.968;2023-02-12T07:54:34;103373.94;;;6.99;100.00
3444;BME280;1736;52.068;6.968;2023-02-12T07:57:02;103387.00;;;7.05;100.00
3444;BME280;1736;52.068;6.968;2023-02-12T07:59:28;103391.31;;;7.07;100.00
3444;BME280;1736;52.068;6.968;2023-02-12T08:01:55;103390.28;;;7.13;100.00
3444;BME280;1736;52.068;6.968;2023-02-12T08:04:23;103381.38;;;7.17;100.00
3444;BME280;1736;52.068;6.968;2023-02-12T08:06:51;103383.06;;;7.19;100.00
3444;BME280;1736;52.068;6.968;2023-02-12T08:09:20;103390.84;;;7.24;100.00
3444;BME280;1736;52.068;6.968;2023-02-12T08:11:47;103383.69;;;7.29;100.00
3444;BME280;1736;52.068;6.968;2023-02-12T08:14:17;103390.66;;;7.31;100.00
3444;BME280;1736;52.068;6.968;2023-02-12T08:16:45;103391.19;;;7.42;100.00
3444;BME280;1736;52.068;6.968;2023-02-12T08:19:13;103394.59;;;7.47;100.00
3444;BME280;1736;52.068;6.968;2023-02-12T08:21:40;103395.41;;;7.49;100.00
3444;BME280;1736;52.068;6.968;2023-02-12T08:24:06;103401.63;;;7.48;100.00
3444;BME280;1736;52.068;6.968;2023-02-12T08:26:35;103404.91;;;7.56;100.00
3444;BME280;1736;52.068;6.968;2023-02-12T08:29:05;103406.47;;;7.63;100.00
3444;BME280;1736;52.068;6.968;2023-02-12T08:31:34;103409.00;;;7.66;100.00
3444;BME280;1736;52.068;6.968;2023-02-12T08:34:02;103415.69;;;7.79;100.00
3444;BME280;1736;52.068;6.968;2023-02-12T08:36:34;103416.50;;;7.81;100.00
3444;BME280;1736;52.068;6.968;2023-02-12T08:39:00;103408.25;;;7.92;100.00
3444;BME280;1736;52.068;6.968;2023-02-12T08:41:28;103418.22;;;7.82;100.00
3444;BME280;1736;52.068;6.968;2023-02-12T08:43:56;103413.53;;;7.92;100.00
3444;BME280;1736;52.068;6.968;2023-02-12T08:46:25;103422.84;;;8.05;100.00
3444;BME280;1736;52.068;6.968;2023-02-12T08:48:54;103422.75;;;8.08;100.00
3444;BME280;1736;52.068;6.968;2023-02-12T08:51:22;103423.63;;;8.08;100.00
3444;BME280;1736;52.068;6.968;2023-02-12T08:53:52;103426.97;;;8.15;99.43
3444;BME280;1736;52.068;6.968;2023-02-12T08:56:20;103426.78;;;8.21;99.19
3444;BME280;1736;52.068;6.968;2023-02-12T08:58:47;103430.94;;;8.29;99.18
3444;BME280;1736;52.068;6.968;2023-02-12T09:01:15;103429.97;;;8.32;98.68
3444;BME280;1736;52.068;6.968;2023-02-12T09:03:43;103430.66;;;8.38;98.44
3444;BME280;1736;52.068;6.968;2023-02-12T09:06:11;103436.56;;;8.46;98.07
3444;BME280;1736;52.068;6.968;2023-02-12T09:08:38;103439.94;;;8.51;97.71
3444;BME280;1736;52.068;6.968;2023-02-12T09:11:06;103441.47;;;8.58;97.07
3444;BME280;1736;52.068;6.968;2023-02-12T09:13:33;103440.53;;;8.59;96.32
3444;BME280;1736;52.068;6.968;2023-02-12T09:16:01;103452.63;;;8.68;96.17
3444;BME280;1736;52.068;6.968;2023-02-12T09:18:28;103443.94;;;8.64;95.80
3444;BME280;1736;52.068;6.968;2023-02-12T09:21:01;103444.66;;;8.69;95.72
3444;BME280;1736;52.068;6.968;2023-02-12T09:23:29;103444.38;;;8.77;95.16
3444;BME280;1736;52.068;6.968;2023-02-12T09:25:56;103451.44;;;8.76;94.37
3444;BME280;1736;52.068;6.968;2023-02-12T09:28:23;103454.84;;;8.81;93.13
3444;BME280;1736;52.068;6.968;2023-02-12T09:30:50;103454.22;;;8.73;93.41
3444;BME280;1736;52.068;6.968;2023-02-12T09:33:16;103455.63;;;8.83;92.83
3444;BME280;1736;52.068;6.968;2023-02-12T09:35:43;103451.88;;;8.90;92.12
3444;BME280;1736;52.068;6.968;2023-02-12T09:38:09;103447.38;;;8.92;91.40
3444;BME280;1736;52.068;6.968;2023-02-12T09:40:43;103455.31;;;8.92;91.22
3444;BME280;1736;52.068;6.968;2023-02-12T09:43:17;103452.03;;;9.12;90.48
3444;BME280;1736;52.068;6.968;2023-02-12T09:45:50;103448.88;;;9.01;89.80
3444;BME280;1736;52.068;6.968;2023-02-12T09:48:30;103448.59;;;9.08;89.13
3444;BME280;1736;52.068;6.968;2023-02-12T09:51:02;103445.25;;;9.03;88.54
3444;BME280;1736;52.068;6.968;2023-02-12T09:53:34;103449.22;;;9.16;89.12
3444;BME280;1736;52.068;6.968;2023-02-12T09:56:07;103456.72;;;9.28;88.88
3444;BME280;1736;52.068;6.968;2023-02-12T09:58:40;103455.88;;;9.28;86.78
3444;BME280;1736;52.068;6.968;2023-02-12T10:01:10;103450.28;;;9.11;86.62
3444;BME280;1736;52.068;6.968;2023-02-12T10:03:37;103454.06;;;9.04;85.32
3444;BME280;1736;52.068;6.968;2023-02-12T10:06:06;103454.63;;;9.13;86.78
3444;BME280;1736;52.068;6.968;2023-02-12T10:08:56;103457.19;;;9.15;86.51
3444;BME280;1736;52.068;6.968;2023-02-12T10:11:39;103459.19;;;9.34;85.72
3444;BME280;1736;52.068;6.968;2023-02-12T10:14:24;103463.19;;;9.21;85.68
3444;BME280;1736;52.068;6.968;2023-02-12T10:16:57;103463.47;;;9.38;85.88
3444;BME280;1736;52.068;6.968;2023-02-12T10:19:45;103459.34;;;9.54;85.79
3444;BME280;1736;52.068;6.968;2023-02-12T10:22:22;103456.47;;;9.60;84.95
3444;BME280;1736;52.068;6.968;2023-02-12T10:25:00;103468.94;;;9.58;84.45
3444;BME280;1736;52.068;6.968;2023-02-12T10:27:36;103462.16;;;9.50;84.40
3444;BME280;1736;52.068;6.968;2023-02-12T10:30:13;103468.59;;;9.43;84.66
3444;BME280;1736;52.068;6.968;2023-02-12T10:32:45;103460.09;;;9.58;84.15
3444;BME280;1736;52.068;6.968;2023-02-12T10:35:15;103473.78;;;9.70;84.22
3444;BME280;1736;52.068;6.968;2023-02-12T10:37:45;103457.78;;;9.72;83.83
3444;BME280;1736;52.068;6.968;2023-02-12T10:40:17;103460.94;;;9.60;83.52
3444;BME280;1736;52.068;6.968;2023-02-12T10:42:48;103453.84;;;9.83;83.74
3444;BME280;1736;52.068;6.968;2023-02-12T10:45:17;103453.84;;;9.83;83.26
3444;BME280;1736;52.068;6.968;2023-02-12T10:47:45;103451.34;;;9.79;83.06
3444;BME280;1736;52.068;6.968;2023-02-12T10:50:20;103451.88;;;9.88;82.38
3444;BME280;1736;52.068;6.968;2023-02-12T10:52:53;103448.34;;;10.12;81.75
3444;BME280;1736;52.068;6.968;2023-02-12T10:55:26;103453.97;;;10.26;82.06
3444;BME280;1736;52.068;6.968;2023-02-12T10:57:55;103454.13;;;10.23;81.82
3444;BME280;1736;52.068;6.968;2023-02-12T11:00:26;103451.31;;;10.26;81.61
3444;BME280;1736;52.068;6.968;2023-02-12T11:03:16;103448.38;;;10.34;81.38
3444;BME280;1736;52.068;6.968;2023-02-12T11:05:44;103446.16;;;10.45;81.03
3444;BME280;1736;52.068;6.968;2023-02-12T11:08:28;103446.63;;;10.33;79.79
3444;BME280;1736;52.068;6.968;2023-02-12T11:11:03;103451.63;;;10.19;80.37
3444;BME280;1736;52.068;6.968;2023-02-12T11:13:31;103438.59;;;10.34;80.75
3444;BME280;1736;52.068;6.968;2023-02-12T11:15:58;103435.53;;;10.45;80.36
3444;BME280;1736;52.068;6.968;2023-02-12T11:18:27;103433.63;;;10.48;79.55
3444;BME280;1736;52.068;6.968;2023-02-12T11:20:59;103428.66;;;10.18;79.25
3444;BME280;1736;52.068;6.968;2023-02-12T11:23:27;103433.28;;;10.13;79.32
3444;BME280;1736;52.068;6.968;2023-02-12T11:25:57;103433.09;;;10.17;79.98
3444;BME280;1736;52.068;6.968;2023-02-12T11:28:24;103429.28;;;10.24;80.19
3444;BME280;1736;52.068;6.968;2023-02-12T11:30:55;103419.47;;;10.26;79.33
3444;BME280;1736;52.068;6.968;2023-02-12T11:33:27;103417.03;;;10.43;79.83
3444;BME280;1736;52.068;6.968;2023-02-12T11:35:56;103415.91;;;10.27;79.82
3444;BME280;1736;52.068;6.968;2023-02-12T11:38:35;103416.59;;;10.32;79.27
3444;BME280;1736;52.068;6.968;2023-02-12T11:41:07;103412.06;;;10.34;78.69
3444;BME280;1736;52.068;6.968;2023-02-12T11:43:44;103407.19;;;10.24;78.52
3444;BME280;1736;52.068;6.968;2023-02-12T11:46:18;103401.38;;;10.14;78.93
3444;BME280;1736;52.068;6.968;2023-02-12T11:48:45;103404.25;;;10.31;79.76
3444;BME280;1736;52.068;6.968;2023-02-12T11:51:18;103395.78;;;10.22;79.69
3444;BME280;1736;52.068;6.968;2023-02-12T11:53:48;103401.94;;;10.44;79.50
3444;BME280;1736;52.068;6.968;2023-02-12T11:56:16;103401.28;;;10.39;78.69
3444;BME280;1736;52.068;6.968;2023-02-12T11:58:44;103403.59;;;10.46;78.56
3444;BME280;1736;52.068;6.968;2023-02-12T12:01:17;103401.28;;;10.61;79.22
3444;BME280;1736;52.068;6.968;2023-02-12T12:03:50;103397.13;;;10.53;78.80
3444;BME280;1736;52.068;6.968;2023-02-12T12:06:24;103404.03;;;10.36;78.60
3444;BME280;1736;52.068;6.968;2023-02-12T12:08:56;103399.91;;;10.50;78.78
3444;BME280;1736;52.068;6.968;2023-02-12T12:11:28;103395.97;;;10.61;77.74
3444;BME280;1736;52.068;6.968;2023-02-12T12:14:01;103394.97;;;10.41;77.74
3444;BME280;1736;52.068;6.968;2023-02-12T12:16:34;103393.31;;;10.61;77.89
3444;BME280;1736;52.068;6.968;2023-02-12T12:19:23;103387.13;;;10.60;76.65
3444;BME280;1736;52.068;6.968;2023-02-12T12:22:14;103389.66;;;10.63;76.70
3444;BME280;1736;52.068;6.968;2023-02-12T12:24:46;103376.31;;;10.65;76.38
3444;BME280;1736;52.068;6.968;2023-02-12T12:27:20;103375.22;;;10.70;76.50
3444;BME280;1736;52.068;6.968;2023-02-12T12:30:11;103379.88;;;10.63;77.53
3444;BME280;1736;52.068;6.968;2023-02-12T12:32:46;103377.31;;;10.62;78.52
3444;BME280;1736;52.068;6.968;2023-02-12T12:35:16;103373.16;;;10.77;77.89
3444;BME280;1736;52.068;6.968;2023-02-12T12:37:47;103368.16;;;10.89;77.35
3444;BME280;1736;52.068;6.968;2023-02-12T12:40:40;103366.16;;;10.94;76.99
3444;BME280;1736;52.068;6.968;2023-02-12T12:43:11;103369.66;;;10.54;77.09
3444;BME280;1736;52.068;6.968;2023-02-12T12:49:05;103362.47;;;10.78;77.25
3444;BME280;1736;52.068;6.968;2023-02-12T12:51:52;103356.47;;;10.93;77.30
3444;BME280;1736;52.068;6.968;2023-02-12T12:54:31;103366.44;;;11.08;76.67
3444;BME280;1736;52.068;6.968;2023-02-12T12:57:06;103361.59;;;11.18;76.34
3444;BME280;1736;52.068;6.968;2023-02-12T13:00:07;103345.53;;;11.21;73.78
3444;BME280;1736;52.068;6.968;2023-02-12T13:03:00;103344.16;;;11.31;73.18
3444;BME280;1736;52.068;6.968;2023-02-12T13:05:59;103342.28;;;10.74;75.10
3444;BME280;1736;52.068;6.968;2023-02-12T13:08:38;103332.38;;;10.78;75.02
3444;BME280;1736;52.068;6.968;2023-02-12T13:11:20;103338.75;;;10.94;75.02
3444;BME280;1736;52.068;6.968;2023-02-12T13:13:56;103342.72;;;11.04;74.72
3444;BME280;1736;52.068;6.968;2023-02-12T13:16:29;103333.56;;;11.11;74.55
3444;BME280;1736;52.068;6.968;2023-02-12T13:19:07;103334.75;;;11.04;74.19
3444;BME280;1736;52.068;6.968;2023-02-12T13:21:42;103320.03;;;10.97;75.38
3444;BME280;1736;52.068;6.968;2023-02-12T13:24:22;103332.91;;;10.86;75.25
3444;BME280;1736;52.068;6.968;2023-02-12T13:26:53;103334.50;;;10.90;75.47
3444;BME280;1736;52.068;6.968;2023-02-12T13:29:24;103322.28;;;10.86;75.95
3444;BME280;1736;52.068;6.968;2023-02-12T13:31:54;103329.72;;;10.78;75.54
3444;BME280;1736;52.068;6.968;2023-02-12T13:34:22;103334.09;;;10.79;76.07